Time;durP1;ratioP1;P1;durP2;ratioP2;P2;SDS_P1;SDS_P2;PMS_P1;PMS_P2;Temp;Humidity;BMP_temperature;BMP_pressure;BME280_temperature;BME280_humidity;BME280_pressure;Samples;Min_cycle;Max_cycle;Signal;HPM_P1;HPM_P2
2022/09/07 00:00:04;;;;;;;2.53;2.33;;;10.90;99.90;;;;;;6153912;23;20404;-75
2022/09/07 00:02:32;;;;;;;5.25;2.40;;;10.90;99.90;;;;;;6127740;23;20092;-76
2022/09/07 00:04:59;;;;;;;4.35;2.90;;;10.90;99.90;;;;;;6128187;23;20025;-77
2022/09/07 00:07:28;;;;;;;4.90;2.80;;;10.80;99.90;;;;;;6153898;23;20022;-76
2022/09/07 00:09:55;;;;;;;2.28;2.08;;;10.80;99.90;;;;;;6154195;23;20455;-77
2022/09/07 00:12:22;;;;;;;2.45;2.25;;;10.80;99.90;;;;;;6128121;23;20022;-76
2022/09/07 00:14:50;;;;;;;2.50;2.33;;;10.80;99.90;;;;;;6128835;23;20029;-77
2022/09/07 00:17:17;;;;;;;2.42;2.22;;;10.70;99.90;;;;;;6127079;23;20025;-76
2022/09/07 00:19:44;;;;;;;2.30;1.75;;;10.70;99.90;;;;;;6153854;23;20470;-77
2022/09/07 00:22:11;;;;;;;3.65;2.13;;;10.70;99.90;;;;;;6154429;23;20059;-76
2022/09/07 00:24:40;;;;;;;2.67;2.08;;;10.70;99.90;;;;;;6155335;23;20030;-77
2022/09/07 00:27:07;;;;;;;3.67;2.35;;;10.70;99.90;;;;;;6153743;23;20340;-76
2022/09/07 00:29:34;;;;;;;2.50;2.20;;;10.70;99.90;;;;;;6154308;23;20022;-77
2022/09/07 00:32:02;;;;;;;3.92;2.20;;;10.70;99.90;;;;;;6153307;23;20451;-77
2022/09/07 00:34:30;;;;;;;2.10;1.80;;;10.70;99.90;;;;;;6153943;23;20428;-77
2022/09/07 00:36:57;;;;;;;2.22;2.05;;;10.60;99.90;;;;;;6153784;23;20359;-77
2022/09/07 00:39:24;;;;;;;2.33;2.05;;;10.60;99.90;;;;;;6102391;23;20348;-77
2022/09/07 00:41:53;;;;;;;2.70;2.50;;;10.60;99.90;;;;;;6102990;23;20028;-76
2022/09/07 00:45:02;;;;;;;3.58;2.45;;;10.60;99.90;;;;;;6153729;23;20387;-77
2022/09/07 00:47:38;;;;;;;2.63;2.42;;;10.60;99.90;;;;;;6153908;23;20036;-77
2022/09/07 00:50:12;;;;;;;3.30;2.30;;;10.60;99.90;;;;;;6152459;23;20025;-77
2022/09/07 00:52:43;;;;;;;2.63;2.40;;;10.50;99.90;;;;;;6153052;23;20021;-77
2022/09/07 00:55:13;;;;;;;2.67;2.47;;;10.50;99.90;;;;;;6153449;23;20415;-76
2022/09/07 00:57:48;;;;;;;4.07;2.40;;;10.50;99.90;;;;;;6153477;23;20029;-77
2022/09/07 01:00:15;;;;;;;2.42;2.22;;;10.50;99.90;;;;;;6153063;23;20116;-77
2022/09/07 01:02:43;;;;;;;2.60;2.40;;;10.40;99.90;;;;;;6153399;23;20021;-76
2022/09/07 01:05:19;;;;;;;3.38;1.95;;;10.40;99.90;;;;;;6127368;23;20112;-77
2022/09/07 01:07:47;;;;;;;3.35;2.25;;;10.40;99.90;;;;;;6152252;23;20022;-76
2022/09/07 01:10:14;;;;;;;3.65;2.75;;;10.40;99.90;;;;;;6153770;23;20419;-77
2022/09/07 01:12:43;;;;;;;2.25;2.10;;;10.40;99.90;;;;;;6152813;23;20032;-75
2022/09/07 01:15:11;;;;;;;2.70;2.50;;;10.40;99.90;;;;;;6154241;23;20029;-77
2022/09/07 01:17:52;;;;;;;2.53;2.33;;;10.40;99.90;;;;;;6152985;23;20021;-77
2022/09/07 01:20:48;;;;;;;2.42;2.28;;;10.40;99.90;;;;;;6152939;23;20485;-76
2022/09/07 01:24:08;;;;;;;2.70;2.42;;;10.40;99.90;;;;;;6154010;23;20116;-76
2022/09/07 01:27:27;;;;;;;2.55;2.33;;;10.40;99.90;;;;;;6153457;23;20459;-77
2022/09/07 01:30:02;;;;;;;3.15;2.58;;;10.40;99.90;;;;;;6153264;23;20025;-77
2022/09/07 01:32:48;;;;;;;2.95;2.75;;;10.40;99.90;;;;;;6153392;23;20030;-77
2022/09/07 01:35:26;;;;;;;2.75;2.50;;;10.40;99.90;;;;;;6126794;23;20032;-77
2022/09/07 01:38:03;;;;;;;2.80;2.60;;;10.40;99.90;;;;;;6152274;23;20025;-76
2022/09/07 01:40:40;;;;;;;4.63;2.55;;;10.30;99.90;;;;;;6151167;23;20025;-77
2022/09/07 01:43:14;;;;;;;3.20;2.90;;;10.30;99.90;;;;;;6101482;23;20341;-77
2022/09/07 01:45:45;;;;;;;2.90;2.70;;;10.30;99.90;;;;;;6152202;23;20025;-76
2022/09/07 01:48:17;;;;;;;3.10;2.90;;;10.30;99.90;;;;;;6153027;23;20101;-76
2022/09/07 01:50:50;;;;;;;2.80;2.60;;;10.30;99.90;;;;;;6152834;23;20022;-77
2022/09/07 01:53:19;;;;;;;;;;;10.30;99.90;;;;;;6154023;23;20030;-77
2022/09/07 01:55:51;;;;;;;3.38;2.80;;;10.30;99.90;;;;;;6153184;23;19924;-77
2022/09/07 01:58:24;;;;;;;4.93;2.75;;;10.20;99.90;;;;;;6150350;23;20072;-77
2022/09/07 02:00:56;;;;;;;3.22;2.90;;;10.20;99.90;;;;;;6127364;23;20021;-77
2022/09/07 02:03:30;;;;;;;3.05;2.58;;;10.20;99.90;;;;;;6151815;23;20018;-77
2022/09/07 02:06:02;;;;;;;2.85;2.53;;;10.20;99.90;;;;;;6151177;23;20033;-77
2022/09/07 02:08:34;;;;;;;3.17;2.20;;;10.20;99.90;;;;;;6153397;23;20053;-77
2022/09/07 02:11:08;;;;;;;2.95;2.60;;;10.20;99.90;;;;;;6127239;23;20100;-77
2022/09/07 02:13:41;;;;;;;3.45;2.63;;;10.30;99.90;;;;;;6127088;23;20025;-77
2022/09/07 02:16:14;;;;;;;3.20;2.90;;;10.20;99.90;;;;;;6153367;23;20108;-76
2022/09/07 02:18:45;;;;;;;;;;;10.30;99.90;;;;;;6153881;23;20025;-76
2022/09/07 02:21:16;;;;;;;3.67;2.75;;;10.30;99.90;;;;;;6127087;23;19920;-76
2022/09/07 02:23:50;;;;;;;2.90;2.22;;;10.30;99.90;;;;;;6153623;23;20461;-76
2022/09/07 02:26:22;;;;;;;4.70;2.95;;;10.30;99.90;;;;;;6153408;23;20427;-76
2022/09/07 02:28:51;;;;;;;2.35;2.13;;;10.20;99.90;;;;;;6153392;23;20030;-76
2022/09/07 02:31:18;;;;;;;6.85;2.70;;;10.20;99.90;;;;;;6153393;23;20050;-77
2022/09/07 02:33:46;;;;;;;2.75;2.55;;;10.20;99.90;;;;;;6153629;23;20045;-77
2022/09/07 02:36:18;;;;;;;3.03;2.60;;;10.20;99.90;;;;;;6102571;23;20021;-77
2022/09/07 02:38:45;;;;;;;2.75;2.55;;;10.20;99.90;;;;;;6153799;23;20025;-77
2022/09/07 02:41:34;;;;;;;4.13;2.72;;;10.30;99.90;;;;;;6153233;23;20104;-76
2022/09/07 02:44:07;;;;;;;3.35;2.45;;;10.30;99.90;;;;;;6153763;23;20030;-76
2022/09/07 02:46:50;;;;;;;5.35;2.42;;;10.30;99.90;;;;;;6153912;23;20104;-77
2022/09/07 02:49:28;;;;;;;;;;;10.30;99.90;;;;;;6154076;23;20494;-77
2022/09/07 02:52:06;;;;;;;3.58;2.53;;;10.30;99.90;;;;;;6154463;23;19921;-76
2022/09/07 02:54:51;;;;;;;2.58;2.30;;;10.20;99.90;;;;;;6154777;23;20041;-77
2022/09/07 02:57:29;;;;;;;2.55;2.35;;;10.20;99.90;;;;;;6153356;23;20021;-76
2022/09/07 03:00:07;;;;;;;4.43;2.20;;;10.20;99.90;;;;;;6152782;23;20030;-76
2022/09/07 03:02:45;;;;;;;3.35;2.20;;;10.20;99.90;;;;;;6153081;23;20026;-76
2022/09/07 03:05:19;;;;;;;4.72;2.42;;;10.30;99.90;;;;;;6151772;23;20048;-76
2022/09/07 03:07:54;;;;;;;2.35;2.15;;;10.30;99.90;;;;;;6127020;23;20366;-78
2022/09/07 03:10:23;;;;;;;2.20;2.10;;;10.30;99.90;;;;;;6153067;23;20029;-78
2022/09/07 03:12:51;;;;;;;3.42;2.42;;;10.40;99.90;;;;;;6126908;23;20049;-77
2022/09/07 03:15:22;;;;;;;4.63;2.30;;;10.40;99.90;;;;;;6152896;23;20025;-78
2022/09/07 03:17:49;;;;;;;2.33;2.22;;;10.40;99.90;;;;;;6126878;23;20434;-78
2022/09/07 03:20:18;;;;;;;2.40;2.30;;;10.40;99.90;;;;;;6152981;23;20029;-78
2022/09/07 03:22:46;;;;;;;2.80;2.50;;;10.40;99.90;;;;;;6153069;23;20017;-77
2022/09/07 03:25:14;;;;;;;2.85;2.40;;;10.40;99.90;;;;;;6153653;23;20022;-77
2022/09/07 03:27:41;;;;;;;3.03;2.78;;;10.40;99.90;;;;;;6152939;23;20018;-77
2022/09/07 03:30:11;;;;;;;2.30;2.10;;;10.50;99.90;;;;;;6128172;23;20028;-77
2022/09/07 03:32:40;;;;;;;2.40;2.20;;;10.50;99.90;;;;;;6155553;23;20659;-77
2022/09/07 03:35:13;;;;;;;2.53;2.33;;;10.50;99.90;;;;;;6154528;23;20030;-78
2022/09/07 03:37:40;;;;;;;2.28;1.83;;;10.50;99.90;;;;;;6128411;23;20092;-78
2022/09/07 03:40:11;;;;;;;2.22;2.03;;;10.50;99.90;;;;;;6128398;23;20034;-77
2022/09/07 03:42:39;;;;;;;2.40;2.20;;;10.50;99.90;;;;;;6154410;23;20108;-77
2022/09/07 03:45:08;;;;;;;2.17;1.98;;;10.50;99.90;;;;;;6154571;23;20025;-78
2022/09/07 03:47:36;;;;;;;4.35;2.70;;;10.50;99.90;;;;;;6154845;23;20128;-78
2022/09/07 03:50:06;;;;;;;3.38;2.40;;;10.60;99.90;;;;;;6153737;23;20028;-77
2022/09/07 03:52:34;;;;;;;2.40;2.20;;;10.60;99.90;;;;;;6154462;23;20366;-78
2022/09/07 03:55:01;;;;;;;2.78;1.65;;;10.60;99.90;;;;;;6154409;23;20526;-76
2022/09/07 03:57:29;;;;;;;2.38;1.50;;;10.60;99.90;;;;;;6153410;23;20028;-78
2022/09/07 03:59:57;;;;;;;5.28;1.98;;;10.60;99.90;;;;;;6154227;23;20041;-78
2022/09/07 04:02:24;;;;;;;1.52;1.27;;;10.60;99.90;;;;;;6154705;23;20032;-78
2022/09/07 04:04:51;;;;;;;2.85;1.42;;;10.70;99.90;;;;;;6155247;23;20021;-78
2022/09/07 04:07:20;;;;;;;3.20;1.60;;;10.70;99.90;;;;;;6128536;23;20021;-77
2022/09/07 04:09:50;;;;;;;2.35;1.77;;;10.70;99.90;;;;;;6127959;23;20053;-76
2022/09/07 04:12:17;;;;;;;5.35;1.52;;;10.70;99.90;;;;;;6128215;23;20029;-76
2022/09/07 04:14:45;;;;;;;1.92;1.60;;;10.70;99.90;;;;;;6153851;23;20073;-76
2022/09/07 04:17:12;;;;;;;1.90;1.38;;;10.70;99.90;;;;;;6153674;23;20021;-76
2022/09/07 04:19:39;;;;;;;1.38;1.27;;;10.60;99.90;;;;;;6128443;23;20021;-76
2022/09/07 04:22:07;;;;;;;3.55;1.60;;;10.50;99.90;;;;;;6128391;23;20435;-76
2022/09/07 04:24:35;;;;;;;2.08;1.50;;;10.50;99.90;;;;;;6128562;23;20354;-72
2022/09/07 04:27:03;;;;;;;2.25;1.55;;;10.50;99.90;;;;;;6154271;23;20362;-72
2022/09/07 04:29:33;;;;;;;1.88;1.58;;;10.50;99.90;;;;;;6127937;23;20025;-72
2022/09/07 04:32:01;;;;;;;1.60;1.48;;;10.50;99.90;;;;;;6153222;23;20089;-72
2022/09/07 04:34:28;;;;;;;1.38;1.27;;;10.50;99.90;;;;;;6154764;23;20026;-73
2022/09/07 04:37:02;;;;;;;2.70;1.42;;;10.50;99.90;;;;;;6128113;23;20056;-72
2022/09/07 04:39:30;;;;;;;2.08;1.55;;;10.50;99.90;;;;;;6128899;23;20072;-72
2022/09/07 04:42:00;;;;;;;1.55;1.20;;;10.50;99.90;;;;;;6126733;23;20021;-80
2022/09/07 04:44:28;;;;;;;1.58;1.48;;;10.50;99.90;;;;;;6154122;23;20052;-77
2022/09/07 04:46:56;;;;;;;3.10;1.10;;;10.50;99.90;;;;;;6153535;23;20084;-77
2022/09/07 04:49:23;;;;;;;1.95;1.30;;;10.50;99.90;;;;;;6103446;23;20018;-78
2022/09/07 04:52:13;;;;;;;1.60;1.42;;;10.40;99.90;;;;;;6154121;23;20029;-74
2022/09/07 04:54:41;;;;;;;2.15;1.00;;;10.50;99.90;;;;;;6118670;23;20072;-76
2022/09/07 04:57:11;;;;;;;1.85;1.38;;;10.50;99.90;;;;;;6127574;23;20108;-78
2022/09/07 04:59:38;;;;;;;4.18;1.95;;;10.60;99.90;;;;;;6154162;23;20400;-77
2022/09/07 05:02:05;;;;;;;3.15;1.15;;;10.70;99.90;;;;;;6152928;23;20032;-76
2022/09/07 05:04:35;;;;;;;1.33;0.98;;;10.80;99.90;;;;;;6152287;23;20025;-76
2022/09/07 05:07:02;;;;;;;1.65;0.70;;;10.90;99.90;;;;;;6150273;23;20092;-71
2022/09/07 05:09:30;;;;;;;1.10;0.80;;;10.90;99.90;;;;;;6152232;23;20375;-71
2022/09/07 05:11:57;;;;;;;1.20;0.98;;;11.00;99.90;;;;;;6152288;23;20026;-71
2022/09/07 05:14:27;;;;;;;1.17;0.73;;;11.10;99.90;;;;;;6151437;23;20025;-73
2022/09/07 05:16:54;;;;;;;1.02;0.90;;;11.10;99.90;;;;;;6152294;23;20017;-74
2022/09/07 05:19:21;;;;;;;1.08;0.85;;;11.10;99.90;;;;;;6153450;23;20040;-73
2022/09/07 05:21:49;;;;;;;2.03;0.80;;;11.10;99.90;;;;;;6148726;23;20037;-74
2022/09/07 05:24:16;;;;;;;1.13;0.80;;;11.20;99.90;;;;;;6122476;23;20045;-73
2022/09/07 05:26:44;;;;;;;0.68;0.60;;;11.30;99.90;;;;;;6149621;23;20021;-79
2022/09/07 05:29:11;;;;;;;0.90;0.90;;;11.40;99.90;;;;;;6150775;23;20029;-79
2022/09/07 05:31:40;;;;;;;0.80;0.77;;;11.40;99.90;;;;;;6102590;23;20032;-79
2022/09/07 05:34:07;;;;;;;0.70;0.63;;;11.50;99.90;;;;;;6126695;23;20017;-79
2022/09/07 05:36:36;;;;;;;1.67;0.90;;;11.60;99.90;;;;;;6153160;23;20033;-81
2022/09/07 05:39:05;;;;;;;2.42;0.80;;;11.80;99.90;;;;;;6153961;23;20075;-79
2022/09/07 05:41:32;;;;;;;2.05;1.10;;;11.90;99.90;;;;;;6152612;23;20025;-78
2022/09/07 05:44:00;;;;;;;0.80;0.80;;;12.10;99.90;;;;;;6127174;23;20024;-79
2022/09/07 05:46:27;;;;;;;1.85;0.90;;;12.20;99.90;;;;;;6153628;23;20112;-80
2022/09/07 05:48:56;;;;;;;4.30;1.20;;;12.40;99.90;;;;;;6154198;23;20022;-79
2022/09/07 05:51:24;;;;;;;1.55;0.65;;;12.70;99.90;;;;;;6127524;23;20072;-81
2022/09/07 05:53:51;;;;;;;4.88;1.60;;;13.10;99.90;;;;;;6153876;23;20022;-80
2022/09/07 05:56:18;;;;;;;1.63;0.90;;;13.70;99.90;;;;;;6153190;23;20494;-80
2022/09/07 05:58:54;;;;;;;0.63;0.60;;;14.30;99.90;;;;;;6155022;23;20021;-81
2022/09/07 06:01:21;;;;;;;2.15;0.70;;;15.00;99.90;;;;;;6128938;23;20085;-80
2022/09/07 06:03:49;;;;;;;2.97;0.68;;;15.60;99.90;;;;;;6156024;23;20030;-80
2022/09/07 06:06:19;;;;;;;4.15;0.60;;;15.90;99.90;;;;;;6155404;23;20025;-79
2022/09/07 06:08:49;;;;;;;0.88;0.65;;;16.10;99.90;;;;;;6155483;23;20080;-81
2022/09/07 06:11:18;;;;;;;1.92;0.65;;;;;;;;;;6159297;23;20044;-77
2022/09/07 06:13:46;;;;;;;0.65;0.52;;;17.00;99.90;;;;;;6157820;23;20045;-82
2022/09/07 06:16:14;;;;;;;0.70;0.70;;;17.90;99.90;;;;;;6155582;23;20032;-80
2022/09/07 06:18:44;;;;;;;1.40;0.25;;;18.50;99.90;;;;;;6152902;23;20081;-79
2022/09/07 06:21:13;;;;;;;1.48;0.30;;;19.30;99.90;;;;;;6152493;23;20025;-79
2022/09/07 06:23:43;;;;;;;1.42;0.70;;;19.70;99.90;;;;;;6154093;23;20056;-79
2022/09/07 06:26:12;;;;;;;0.60;0.60;;;19.70;99.90;;;;;;6153119;23;20391;-78
2022/09/07 06:28:41;;;;;;;0.98;0.70;;;18.80;99.90;;;;;;6127697;23;20021;-79
2022/09/07 06:31:11;;;;;;;0.73;0.60;;;17.90;99.90;;;;;;6152115;23;20101;-79
2022/09/07 06:33:40;;;;;;;1.75;0.60;;;16.90;99.90;;;;;;6153147;23;20029;-71
2022/09/07 06:36:11;;;;;;;1.83;0.57;;;16.10;99.90;;;;;;6152736;23;20026;-72
2022/09/07 06:38:39;;;;;;;1.67;0.85;;;15.40;99.90;;;;;;6126891;23;20080;-70
2022/09/07 06:41:12;;;;;;;3.78;1.35;;;15.10;99.90;;;;;;6152207;23;20029;-71
2022/09/07 06:43:39;;;;;;;;;;;15.10;99.90;;;;;;6152175;23;20028;-70
2022/09/07 06:46:10;;;;;;;1.60;0.82;;;15.30;99.90;;;;;;6151568;23;19952;-80
2022/09/07 06:48:38;;;;;;;4.88;0.80;;;15.00;99.90;;;;;;6150557;23;20394;-72
2022/09/07 06:51:07;;;;;;;7.43;3.65;;;14.80;99.90;;;;;;6125322;23;20072;-72
2022/09/07 06:53:37;;;;;;;2.17;1.08;;;14.90;99.90;;;;;;6151761;23;20026;-72
2022/09/07 06:56:09;;;;;;;2.53;0.70;;;15.00;99.90;;;;;;6150333;23;20026;-72
2022/09/07 06:58:36;;;;;;;2.70;0.60;;;15.00;99.90;;;;;;6152406;23;20351;-71
2022/09/07 07:01:08;;;;;;;1.00;0.55;;;14.90;99.90;;;;;;6125487;23;20389;-78
2022/09/07 07:03:36;;;;;;;1.83;0.70;;;14.80;99.90;;;;;;6153696;23;20025;-78
2022/09/07 07:06:05;;;;;;;2.53;0.90;;;14.60;99.90;;;;;;6151767;23;20049;-75
2022/09/07 07:08:32;;;;;;;2.13;0.80;;;14.40;99.90;;;;;;6153732;23;20051;-78
2022/09/07 07:11:02;;;;;;;1.45;0.70;;;14.10;99.90;;;;;;6127093;23;20028;-78
2022/09/07 07:13:31;;;;;;;1.35;0.70;;;13.90;99.90;;;;;;6152891;23;20555;-77
2022/09/07 07:16:03;;;;;;;3.78;0.90;;;13.70;99.90;;;;;;6153195;23;20076;-78
2022/09/07 07:18:30;;;;;;;0.85;0.55;;;13.60;99.90;;;;;;6153620;23;20104;-78
2022/09/07 07:20:58;;;;;;;1.95;0.88;;;13.60;99.90;;;;;;6126227;23;20120;-79
2022/09/07 07:23:25;;;;;;;1.85;0.57;;;13.70;99.90;;;;;;6153682;23;20048;-79
2022/09/07 07:25:52;;;;;;;0.65;0.50;;;14.50;99.90;;;;;;6153657;23;20177;-79
2022/09/07 07:28:22;;;;;;;1.50;0.50;;;16.10;99.90;;;;;;6152869;23;20025;-81
2022/09/07 07:30:56;;;;;;;0.80;0.65;;;17.60;99.90;;;;;;6149649;23;20045;-80
2022/09/07 07:33:28;;;;;;;1.30;0.80;;;19.00;99.90;;;;;;6127367;23;20436;-78
2022/09/07 07:36:07;;;;;;;1.00;0.60;;;20.00;99.90;;;;;;6129664;23;20022;-78
2022/09/07 07:38:35;;;;;;;3.25;0.65;;;21.00;99.90;;;;;;6155145;23;20032;-78
2022/09/07 07:41:02;;;;;;;0.80;0.40;;;21.90;99.90;;;;;;6155138;23;20083;-79
2022/09/07 07:43:30;;;;;;;2.47;0.75;;;22.70;98.90;;;;;;6152831;23;20529;-79
2022/09/07 07:45:59;;;;;;;2.70;0.30;;;22.30;95.00;;;;;;6124873;23;20025;-79
2022/09/07 07:48:26;;;;;;;2.30;0.57;;;21.50;96.00;;;;;;6152566;23;20390;-78
2022/09/07 07:51:02;;;;;;;2.63;0.50;;;20.40;96.30;;;;;;6151261;23;20025;-78
2022/09/07 07:53:32;;;;;;;1.65;0.57;;;19.30;98.30;;;;;;6152610;23;20406;-78
2022/09/07 07:56:00;;;;;;;4.72;0.43;;;18.40;98.50;;;;;;6125106;23;20029;-79
2022/09/07 07:58:28;;;;;;;1.23;0.50;;;18.40;99.90;;;;;;6150434;23;20158;-78
2022/09/07 08:01:02;;;;;;;1.52;0.43;;;18.70;99.20;;;;;;6151020;23;20415;-81
2022/09/07 08:03:30;;;;;;;0.95;0.40;;;18.70;97.90;;;;;;6150406;23;20029;-78
2022/09/07 08:06:06;;;;;;;6.28;0.73;;;18.50;99.90;;;;;;6123604;23;20033;-77
2022/09/07 08:08:36;;;;;;;1.02;0.63;;;18.20;98.90;;;;;;6149236;23;20031;-78
2022/09/07 08:11:07;;;;;;;1.95;0.57;;;19.10;99.90;;;;;;6152237;23;20379;-79
2022/09/07 08:13:34;;;;;;;2.50;0.45;;;20.60;97.20;;;;;;6152473;23;20341;-79
2022/09/07 08:16:04;;;;;;;1.70;0.32;;;20.80;94.20;;;;;;6151485;23;20032;-77
2022/09/07 08:18:56;;;;;;;0.75;0.50;;;20.00;93.40;;;;;;6152719;23;20545;-78
2022/09/07 08:21:39;;;;;;;1.42;0.30;;;19.30;94.70;;;;;;6151157;23;20036;-78
2022/09/07 08:24:07;;;;;;;3.08;0.70;;;19.20;96.00;;;;;;6126669;23;20025;-78
2022/09/07 08:26:34;;;;;;;3.15;0.80;;;19.30;92.90;;;;;;6152646;23;20462;-78
2022/09/07 08:29:04;;;;;;;2.25;0.57;;;19.10;93.60;;;;;;6125576;23;20421;-78
2022/09/07 08:31:33;;;;;;;1.45;0.93;;;19.20;92.80;;;;;;6152952;23;20021;-78
2022/09/07 08:34:00;;;;;;;2.20;0.70;;;20.50;94.70;;;;;;6153362;23;20076;-78
2022/09/07 08:36:30;;;;;;;0.65;0.55;;;22.20;91.60;;;;;;6102314;23;20022;-81
2022/09/07 08:38:58;;;;;;;1.25;0.60;;;22.70;84.30;;;;;;6127142;23;20044;-78
2022/09/07 08:41:44;;;;;;;1.45;0.50;;;;;;;;;;6152018;23;20036;-79
2022/09/07 08:44:16;;;;;;;0.82;0.50;;;23.50;78.80;;;;;;6153223;23;20025;-80
2022/09/07 08:46:48;;;;;;;1.75;0.57;;;24.60;73.20;;;;;;6153143;23;20021;-80
2022/09/07 08:49:22;;;;;;;4.75;0.50;;;25.60;69.70;;;;;;6100995;23;20113;-71
2022/09/07 08:51:57;;;;;;;2.25;0.47;;;26.20;68.60;;;;;;6152389;23;20475;-71
2022/09/07 08:54:25;;;;;;;1.35;0.55;;;25.50;65.40;;;;;;6151187;23;20124;-71
2022/09/07 08:56:53;;;;;;;0.88;0.45;;;24.40;69.20;;;;;;6150785;23;20025;-71
2022/09/07 08:59:25;;;;;;;1.35;0.40;;;23.30;71.60;;;;;;6151998;23;20028;-72
2022/09/07 09:01:54;;;;;;;0.50;0.50;;;22.00;74.10;;;;;;6152721;23;20025;-73
2022/09/07 09:04:25;;;;;;;2.33;0.40;;;20.70;77.20;;;;;;6153357;23;20257;-75
2022/09/07 09:07:05;;;;;;;0.32;0.32;;;19.70;83.00;;;;;;6152055;23;20030;-74
2022/09/07 09:10:02;;;;;;;2.47;0.63;;;19.10;87.50;;;;;;6152143;23;20025;-72
2022/09/07 09:12:40;;;;;;;2.40;0.63;;;18.50;90.30;;;;;;6151297;23;20112;-72
2022/09/07 09:15:19;;;;;;;3.95;0.50;;;18.30;92.60;;;;;;6152915;23;20073;-73
2022/09/07 09:17:59;;;;;;;2.53;0.80;;;20.10;92.20;;;;;;6152380;23;20113;-73
2022/09/07 09:20:31;;;;;;;4.45;0.68;;;21.90;88.90;;;;;;6153119;23;20029;-79
2022/09/07 09:23:09;;;;;;;2.15;0.60;;;23.50;82.40;;;;;;6151896;23;20047;-78
2022/09/07 09:25:39;;;;;;;2.17;0.75;;;24.70;77.80;;;;;;6149771;23;20022;-72
2022/09/07 09:28:10;;;;;;;8.50;0.93;;;25.60;72.30;;;;;;6148876;23;20033;-78
2022/09/07 09:30:38;;;;;;;1.42;0.63;;;26.40;70.50;;;;;;6125867;23;20108;-79
2022/09/07 09:33:22;;;;;;;3.45;0.43;;;26.70;67.00;;;;;;6125583;23;20025;-78
2022/09/07 09:35:52;;;;;;;2.50;0.50;;;26.70;65.30;;;;;;6152663;23;20022;-77
2022/09/07 09:38:33;;;;;;;1.15;0.30;;;25.50;64.80;;;;;;6126666;23;20052;-79
2022/09/07 09:41:05;;;;;;;2.20;0.40;;;24.20;69.40;;;;;;6153317;23;20029;-79
2022/09/07 09:43:44;;;;;;;10.35;0.40;;;23.20;70.60;;;;;;6153153;23;20401;-77
2022/09/07 09:46:23;;;;;;;1.58;0.75;;;22.50;71.90;;;;;;6126698;23;20105;-78
2022/09/07 09:48:58;;;;;;;0.68;0.40;;;21.90;74.10;;;;;;6126720;23;20521;-79
2022/09/07 09:51:28;;;;;;;0.50;0.50;;;20.90;77.30;;;;;;6153041;23;20126;-79
2022/09/07 09:54:05;;;;;;;2.00;0.45;;;19.80;81.90;;;;;;6153106;23;20031;-80
2022/09/07 09:56:40;;;;;;;3.90;0.70;;;18.90;85.90;;;;;;6127137;23;20022;-80
2022/09/07 09:59:26;;;;;;;1.10;0.77;;;18.60;90.50;;;;;;6125895;23;20060;-79
2022/09/07 10:01:54;;;;;;;3.72;0.90;;;19.10;91.40;;;;;;6152178;23;20025;-78
2022/09/07 10:04:31;;;;;;;2.05;1.92;;;20.60;90.00;;;;;;6152280;23;20027;-77
2022/09/07 10:07:12;;;;;;;2.58;0.40;;;22.20;84.50;;;;;;6153277;23;20032;-77
2022/09/07 10:09:42;;;;;;;0.95;0.60;;;23.60;80.20;;;;;;6153195;23;20060;-77
2022/09/07 10:12:26;;;;;;;1.33;0.50;;;24.90;75.60;;;;;;6152929;23;20029;-77
2022/09/07 10:14:55;;;;;;;1.38;0.63;;;25.80;70.40;;;;;;6152388;23;20029;-71
2022/09/07 10:17:29;;;;;;;2.85;0.50;;;24.60;70.20;;;;;;6151373;23;20028;-71
2022/09/07 10:20:02;;;;;;;6.90;1.35;;;23.00;74.90;;;;;;6151530;23;20029;-70
2022/09/07 10:22:36;;;;;;;0.98;0.50;;;21.50;78.50;;;;;;6151585;23;20053;-70
2022/09/07 10:25:29;;;;;;;2.03;0.47;;;20.60;80.50;;;;;;6153092;23;20053;-71
2022/09/07 10:28:18;;;;;;;1.65;0.40;;;20.40;84.20;;;;;;6153186;23;20029;-70
2022/09/07 10:31:01;;;;;;;0.80;0.40;;;19.70;85.60;;;;;;6151911;23;20057;-70
2022/09/07 10:33:37;;;;;;;;;;;19.30;87.40;;;;;;6152123;23;20021;-70
2022/09/07 10:36:14;;;;;;;2.50;0.60;;;19.10;87.80;;;;;;6152544;23;19920;-70
2022/09/07 10:38:47;;;;;;;0.30;0.30;;;18.60;90.00;;;;;;6127693;23;20033;-69
2022/09/07 10:41:19;;;;;;;1.35;0.28;;;18.20;91.50;;;;;;6152871;23;20118;-71
2022/09/07 10:43:49;;;;;;;1.10;0.40;;;18.20;93.50;;;;;;6153313;23;20033;-72
2022/09/07 10:46:35;;;;;;;0.60;0.45;;;18.50;94.40;;;;;;6128311;23;20505;-72
2022/09/07 10:49:26;;;;;;;0.95;0.40;;;18.60;93.70;;;;;;6153010;23;20051;-71
2022/09/07 10:52:06;;;;;;;0.40;0.40;;;18.50;94.40;;;;;;6152814;23;20025;-71
2022/09/07 10:54:45;;;;;;;0.55;0.40;;;18.40;95.20;;;;;;6153390;23;20084;-71
2022/09/07 10:57:50;;;;;;;1.33;0.30;;;18.30;95.10;;;;;;6153468;23;20028;-71
2022/09/07 11:00:20;;;;;;;1.30;0.43;;;18.50;95.60;;;;;;6139274;23;20025;-72
2022/09/07 11:03:11;;;;;;;8.32;2.10;;;18.70;94.80;;;;;;6128052;23;20056;-73
2022/09/07 11:05:57;;;;;;;0.20;0.20;;;19.10;94.60;;;;;;6153944;23;20125;-72
2022/09/07 11:08:43;;;;;;;0.30;0.22;;;19.30;94.10;;;;;;6153828;23;20521;-72
2022/09/07 11:11:21;;;;;;;0.70;0.70;;;19.50;93.60;;;;;;6153345;23;20025;-73
2022/09/07 11:13:56;;;;;;;3.58;0.30;;;19.80;93.30;;;;;;6127990;23;20029;-78
2022/09/07 11:16:28;;;;;;;1.65;0.40;;;19.50;93.40;;;;;;6154530;23;20022;-79
2022/09/07 11:19:00;;;;;;;0.65;0.20;;;18.90;94.20;;;;;;6154604;23;20029;-79
2022/09/07 11:21:34;;;;;;;20.85;3.13;;;18.30;96.50;;;;;;6127336;23;20053;-78
2022/09/07 11:24:09;;;;;;;0.57;0.52;;;17.80;97.50;;;;;;6153901;23;20030;-78
2022/09/07 11:26:42;;;;;;;0.63;0.50;;;17.40;99.10;;;;;;6153735;23;20029;-79
2022/09/07 11:29:18;;;;;;;0.95;0.15;;;17.50;99.90;;;;;;6154048;23;20077;-76
2022/09/07 11:31:48;;;;;;;6.13;1.30;;;19.10;99.90;;;;;;6154110;23;20027;-78
2022/09/07 11:34:21;;;;;;;2.15;0.45;;;21.00;96.60;;;;;;6153907;23;20463;-76
2022/09/07 11:36:55;;;;;;;0.50;0.50;;;23.00;92.30;;;;;;6128256;23;20025;-79
2022/09/07 11:39:34;;;;;;;0.70;0.35;;;24.80;84.00;;;;;;6153582;23;20336;-77
2022/09/07 11:42:04;;;;;;;0.40;0.30;;;25.10;78.20;;;;;;6152491;23;20033;-76
2022/09/07 11:44:41;;;;;;;0.65;0.40;;;24.70;78.20;;;;;;6152851;23;20497;-77
2022/09/07 11:47:18;;;;;;;0.40;0.40;;;24.00;79.50;;;;;;6150532;23;20375;-72
2022/09/07 11:49:46;;;;;;;3.70;2.67;;;23.00;81.80;;;;;;6152084;23;20017;-70
2022/09/07 11:52:30;;;;;;;1.42;0.70;;;21.90;83.40;;;;;;6152136;23;20025;-72
2022/09/07 11:55:04;;;;;;;1.27;0.52;;;20.60;87.90;;;;;;6153028;23;20071;-78
2022/09/07 11:57:46;;;;;;;5.10;0.55;;;19.30;91.10;;;;;;6127449;23;20021;-77
2022/09/07 12:00:19;;;;;;;2.13;0.85;;;18.30;94.20;;;;;;6127309;23;20047;-77
2022/09/07 12:03:31;;;;;;;1.58;0.70;;;17.50;97.20;;;;;;6153004;23;20072;-78
2022/09/07 12:06:40;;;;;;;10.43;0.75;;;16.70;99.90;;;;;;6126544;23;20052;-78
2022/09/07 12:09:25;;;;;;;4.47;0.52;;;15.90;99.90;;;;;;6148495;23;20596;-78
2022/09/07 12:12:17;;;;;;;3.22;0.68;;;15.40;99.90;;;;;;6152700;23;20025;-78
2022/09/07 12:14:58;;;;;;;3.33;0.68;;;15.00;99.90;;;;;;6152644;23;20072;-78
2022/09/07 12:18:00;;;;;;;2.25;0.90;;;14.80;99.90;;;;;;6151957;23;20538;-78
2022/09/07 12:20:39;;;;;;;1.05;0.60;;;14.80;99.90;;;;;;6153757;23;20101;-77
2022/09/07 12:23:20;;;;;;;5.20;0.90;;;15.50;99.90;;;;;;6156537;23;20029;-78
2022/09/07 12:25:50;;;;;;;4.38;1.17;;;16.20;99.90;;;;;;6154181;23;20025;-78
2022/09/07 12:29:04;;;;;;;2.25;1.17;;;17.00;99.90;;;;;;6153840;23;20021;-78
2022/09/07 12:31:43;;;;;;;10.85;1.52;;;17.50;99.90;;;;;;6102281;23;20473;-80
2022/09/07 12:34:57;;;;;;;1.70;0.98;;;17.90;99.90;;;;;;6127162;23;20021;-78
2022/09/07 12:37:42;;;;;;;3.58;1.13;;;18.30;99.90;;;;;;6155837;23;20064;-77
2022/09/07 12:40:49;;;;;;;2.55;0.65;;;18.20;99.90;;;;;;6153146;23;20108;-78
2022/09/07 12:43:52;;;;;;;2.10;1.08;;;18.50;99.90;;;;;;6151387;23;20025;-74
2022/09/07 12:46:51;;;;;;;6.15;1.40;;;18.50;99.90;;;;;;6149135;23;20021;-72
2022/09/07 12:49:55;;;;;;;7.25;0.93;;;18.10;99.90;;;;;;6151350;23;20060;-71
2022/09/07 12:53:13;;;;;;;3.80;0.35;;;17.70;99.90;;;;;;6152227;23;20025;-70
2022/09/07 12:56:17;;;;;;;2.05;0.95;;;17.20;99.90;;;;;;6149015;23;20045;-70
2022/09/07 12:59:07;;;;;;;2.38;0.75;;;16.70;99.90;;;;;;6152724;23;20080;-77
2022/09/07 13:01:46;;;;;;;0.50;0.50;;;16.20;99.90;;;;;;6152467;23;20052;-79
2022/09/07 13:04:48;;;;;;;0.70;0.50;;;17.70;99.90;;;;;;6152131;23;20076;-78
2022/09/07 13:07:44;;;;;;;0.73;0.50;;;20.80;99.90;;;;;;6152555;23;20032;-76
2022/09/07 13:10:29;;;;;;;1.33;0.60;;;23.70;99.30;;;;;;6152045;23;20092;-78
2022/09/07 13:13:03;;;;;;;1.08;0.63;;;24.50;90.50;;;;;;6125977;23;20024;-77
2022/09/07 13:15:44;;;;;;;0.55;0.40;;;23.60;90.60;;;;;;6102569;23;20021;-79
2022/09/07 13:18:41;;;;;;;0.90;0.60;;;22.30;91.60;;;;;;6153586;23;20410;-76
2022/09/07 13:21:38;;;;;;;0.85;0.38;;;20.70;93.90;;;;;;6153604;23;20068;-76
2022/09/07 13:24:51;;;;;;;0.70;0.45;;;19.40;96.90;;;;;;6150940;23;20100;-77